createdAt,value
2023-09-02T00:00:57.867Z,100409.19
2023-09-02T00:02:00.029Z,100407.36
2023-09-02T00:03:02.212Z,100404.38
2023-09-02T00:04:05.095Z,100402.68
2023-09-02T00:05:08.143Z,100407.07
2023-09-02T00:06:11.112Z,100408.74
2023-09-02T00:07:13.273Z,100404.06
2023-09-02T00:08:15.426Z,100407.77
2023-09-02T00:09:17.576Z,100406.91
2023-09-02T00:10:20.082Z,100407.89
2023-09-02T00:11:22.319Z,100407.89
2023-09-02T00:12:24.464Z,100412.44
2023-09-02T00:13:26.634Z,100411.72
2023-09-02T00:14:28.787Z,100407.36
2023-09-02T00:15:31.046Z,100413.71
2023-09-02T00:16:33.407Z,100417.38
2023-09-02T00:17:36.362Z,100413.02
2023-09-02T00:18:38.637Z,100412.17
2023-09-02T00:19:40.797Z,100412.17
2023-09-02T00:20:43.376Z,100406.80
2023-09-02T00:21:45.524Z,100410.33
2023-09-02T00:22:47.894Z,100410.33
2023-09-02T00:23:50.377Z,100413.87
2023-09-02T00:24:53.330Z,100414.85
2023-09-02T00:25:55.501Z,100417.54
2023-09-02T00:26:57.847Z,100416.69
2023-09-02T00:28:00.008Z,100416.69
2023-09-02T00:29:02.889Z,100415.02
2023-09-02T00:30:06.750Z,100416.00
2023-09-02T00:31:09.209Z,100416.97
2023-09-02T00:32:11.417Z,100420.51
2023-09-02T00:33:13.569Z,100420.80
2023-09-02T00:34:15.821Z,100423.77
2023-09-02T00:35:17.972Z,100415.31
2023-09-02T00:36:20.754Z,100417.59
2023-09-02T00:37:23.009Z,100418.86
2023-09-02T00:38:25.169Z,100420.28
2023-09-02T00:39:27.744Z,100416.20
2023-09-02T00:40:30.406Z,100420.03
2023-09-02T00:41:38.570Z,100417.34
2023-09-02T00:42:41.017Z,100418.48
2023-09-02T00:43:43.936Z,100415.80
2023-09-02T00:44:47.840Z,100422.71
2023-09-02T00:45:50.038Z,100417.19
2023-09-02T00:46:52.792Z,100413.52
2023-09-02T00:47:55.036Z,100408.85
2023-09-02T00:48:57.286Z,100418.73
2023-09-02T00:49:59.546Z,100407.88
2023-09-02T00:51:01.711Z,100416.05
2023-09-02T00:52:04.571Z,100408.16
2023-09-02T00:53:06.852Z,100411.81
2023-09-02T00:54:08.996Z,100418.20
2023-09-02T00:55:11.364Z,100420.31
2023-09-02T00:56:16.899Z,100420.47
2023-09-02T00:57:19.356Z,100421.58
2023-09-02T00:58:21.824Z,100418.20
2023-09-02T00:59:24.099Z,100422.02
2023-09-02T01:00:27.064Z,100421.31
2023-09-02T01:01:30.694Z,100425.83
2023-09-02T01:02:33.636Z,100427.82
2023-09-02T01:03:36.111Z,100419.89
2023-09-02T01:04:38.360Z,100428.10
2023-09-02T01:05:41.471Z,100425.54
2023-09-02T01:06:44.735Z,100431.76
2023-09-02T01:07:47.283Z,100431.91
2023-09-02T01:08:49.701Z,100430.21
2023-09-02T01:09:52.010Z,100432.20
2023-09-02T01:10:54.883Z,100425.98
2023-09-02T01:11:57.040Z,100432.32
2023-09-02T01:12:59.197Z,100437.69
2023-09-02T01:14:02.899Z,100431.50
2023-09-02T01:15:06.698Z,100431.50
2023-09-02T01:16:09.252Z,100426.95
2023-09-02T01:17:11.689Z,100428.53
2023-09-02T01:18:15.004Z,100430.91
2023-09-02T01:19:18.048Z,100433.59
2023-09-02T01:20:22.696Z,100437.85
2023-09-02T01:22:00.998Z,100446.72
2023-09-02T01:26:09.597Z,100428.20
2023-09-02T01:27:15.583Z,100432.17
2023-09-02T01:28:21.004Z,100437.41
2023-09-02T01:29:25.736Z,100437.54
2023-09-02T01:30:31.174Z,100441.23
2023-09-02T01:31:34.094Z,100438.67
2023-09-02T01:32:42.004Z,100433.31
2023-09-02T01:33:45.941Z,100439.97
2023-09-02T01:34:48.516Z,100435.45
2023-09-02T01:35:51.778Z,100442.77
2023-09-02T01:36:54.344Z,100436.87
2023-09-02T01:37:57.950Z,100437.69
2023-09-02T01:39:01.494Z,100441.38
2023-09-02T01:40:05.548Z,100444.34
2023-09-02T01:41:09.384Z,100436.45
2023-09-02T01:42:12.098Z,100443.06
2023-09-02T01:43:15.059Z,100446.72
2023-09-02T01:44:17.646Z,100441.77
2023-09-02T01:45:20.606Z,100439.36
2023-09-02T01:46:23.846Z,100444.14
2023-09-02T01:47:26.669Z,100438.94
2023-09-02T01:48:29.613Z,100440.06
2023-09-02T01:49:33.257Z,100443.87
2023-09-02T01:50:37.357Z,100436.69
2023-09-02T01:51:41.294Z,100432.58
2023-09-02T01:52:44.589Z,100434.83
2023-09-02T01:53:47.364Z,100440.34
2023-09-02T01:54:50.849Z,100433.40
2023-09-02T01:55:53.581Z,100424.66
2023-09-02T01:56:55.939Z,100432.98
2023-09-02T01:57:59.927Z,100438.48
2023-09-02T01:59:02.296Z,100437.48
2023-09-02T02:00:06.374Z,100444.70
2023-09-02T02:01:10.633Z,100442.14
2023-09-02T02:02:12.860Z,100436.94
2023-09-02T02:03:27.894Z,100442.30
2023-09-02T02:04:35.599Z,100441.59
2023-09-02T02:05:40.221Z,100441.72
2023-09-02T02:06:43.671Z,100441.02
2023-09-02T02:07:48.637Z,100437.91
2023-09-02T02:09:03.522Z,100440.59
2023-09-02T02:10:08.589Z,100434.64
2023-09-02T02:11:12.264Z,100442.10
2023-09-02T02:12:15.288Z,100438.72
2023-09-02T02:13:17.786Z,100444.08
2023-09-02T02:14:20.107Z,100440.70
2023-09-02T02:15:22.272Z,100435.45
2023-09-02T02:16:24.598Z,100449.12
2023-09-02T02:17:26.834Z,100445.47
2023-09-02T02:18:29.045Z,100442.36
2023-09-02T02:19:31.626Z,100440.92
2023-09-02T02:20:37.905Z,100441.93
2023-09-02T02:21:41.250Z,100441.93
2023-09-02T02:22:43.368Z,100443.87
2023-09-02T02:23:45.419Z,100447.41
2023-09-02T02:24:47.520Z,100448.26
2023-09-02T02:25:49.677Z,100442.20
2023-09-02T02:26:52.353Z,100439.64
2023-09-02T02:27:54.542Z,100443.32
2023-09-02T02:28:56.665Z,100441.49
2023-09-02T02:29:59.135Z,100446.97
2023-09-02T02:31:01.387Z,100445.14
2023-09-02T02:32:04.053Z,100453.17
2023-09-02T02:33:06.256Z,100448.80
2023-09-02T02:34:08.688Z,100445.56
2023-09-02T02:35:12.850Z,100449.21
2023-09-02T02:36:15.184Z,100451.89
2023-09-02T02:37:17.374Z,100449.33
2023-09-02T02:38:19.465Z,100450.18
2023-09-02T02:39:21.641Z,100452.30
2023-09-02T02:40:23.881Z,100454.13
2023-09-02T02:41:26.155Z,100455.95
2023-09-02T02:42:28.303Z,100459.59
2023-09-02T02:43:30.523Z,100456.22
2023-09-02T02:44:32.614Z,100459.05
2023-09-02T02:45:34.797Z,100458.30
2023-09-02T02:46:37.036Z,100461.98
2023-09-02T02:47:39.234Z,100461.25
2023-09-02T02:48:41.301Z,100458.57
2023-09-02T02:49:43.819Z,100454.92
2023-09-02T02:50:46.688Z,100463.92
2023-09-02T02:51:48.925Z,100468.72
2023-09-02T02:52:51.521Z,100472.38
2023-09-02T02:53:54.078Z,100471.52
2023-09-02T02:54:56.554Z,100473.38
2023-09-02T02:55:58.908Z,100471.66
2023-09-02T02:57:01.179Z,100474.45
2023-09-02T02:58:03.636Z,100473.86
2023-09-02T02:59:05.890Z,100469.36
2023-09-02T03:00:10.302Z,100476.55
2023-09-02T03:01:13.220Z,100477.52
2023-09-02T03:02:16.182Z,100473.98
2023-09-02T03:03:18.803Z,100479.33
2023-09-02T03:04:21.406Z,100471.19
2023-09-02T03:05:23.764Z,100478.22
2023-09-02T03:06:26.014Z,100476.31
2023-09-02T03:07:28.168Z,100481.75
2023-09-02T03:08:31.464Z,100469.22
2023-09-02T03:09:33.682Z,100477.13
2023-09-02T03:10:36.821Z,100470.07
2023-09-02T03:11:39.579Z,100472.75
2023-09-02T03:12:41.720Z,100474.58
2023-09-02T03:13:44.392Z,100473.72
2023-09-02T03:14:49.313Z,100479.92
2023-09-02T03:15:54.377Z,100480.08
2023-09-02T03:16:56.804Z,100475.80
2023-09-02T03:17:59.124Z,100475.95
2023-09-02T03:19:02.104Z,100479.74
2023-09-02T03:20:06.858Z,100479.74
2023-09-02T03:21:09.344Z,100476.21
2023-09-02T03:22:12.197Z,100478.03
2023-09-02T03:23:15.376Z,100481.83
2023-09-02T03:24:18.450Z,100474.65
2023-09-02T03:25:21.095Z,100479.86
2023-09-02T03:26:23.602Z,100479.03
2023-09-02T03:27:26.071Z,100477.33
2023-09-02T03:28:29.744Z,100481.97
2023-09-02T03:29:31.863Z,100477.47
2023-09-02T03:30:34.682Z,100479.86
2023-09-02T03:31:37.644Z,100479.86
2023-09-02T03:32:40.169Z,100478.89
2023-09-02T03:33:42.380Z,100480.59
2023-09-02T03:34:45.625Z,100476.21
2023-09-02T03:35:47.981Z,100479.74
2023-09-02T03:36:50.390Z,100477.92
2023-09-02T03:37:52.639Z,100478.63
2023-09-02T03:38:54.898Z,100477.66
2023-09-02T03:39:57.932Z,100481.05
2023-09-02T03:41:00.245Z,100481.90
2023-09-02T03:42:02.707Z,100474.84
2023-09-02T03:43:04.872Z,100483.72
2023-09-02T03:44:07.532Z,100474.72
2023-09-02T03:45:09.992Z,100479.33
2023-09-02T03:46:13.718Z,100479.22
2023-09-02T03:47:16.148Z,100481.90
2023-09-02T03:48:18.848Z,100485.28
2023-09-02T03:49:21.396Z,100481.67
2023-09-02T03:50:25.075Z,100487.73
2023-09-02T03:51:27.753Z,100488.44
2023-09-02T03:52:31.853Z,100486.34
2023-09-02T03:53:34.330Z,100484.53
2023-09-02T03:54:36.909Z,100488.77
2023-09-02T03:55:39.257Z,100490.44
2023-09-02T03:56:41.616Z,100482.29
2023-09-02T03:57:44.079Z,100484.70
2023-09-02T03:58:46.975Z,100480.77
2023-09-02T03:59:50.042Z,100485.14
2023-09-02T04:00:52.980Z,100489.23
2023-09-02T04:01:55.166Z,100490.68
2023-09-02T04:02:57.319Z,100483.23
2023-09-02T04:03:59.601Z,100489.30
2023-09-02T04:05:02.480Z,100480.84
2023-09-02T04:06:05.643Z,100489.46
2023-09-02T04:07:07.860Z,100496.53
2023-09-02T04:08:10.583Z,100494.41
2023-09-02T04:09:12.839Z,100501.20
2023-09-02T04:10:17.243Z,100504.44
2023-09-02T04:11:19.460Z,100507.70
2023-09-02T04:12:21.962Z,100510.11
2023-09-02T04:13:25.569Z,100509.84
2023-09-02T04:14:29.452Z,100505.06
2023-09-02T04:15:32.335Z,100505.62
2023-09-02T04:16:34.707Z,100505.34
2023-09-02T04:17:36.963Z,100507.05
2023-09-02T04:18:39.865Z,100505.93
2023-09-02T04:19:42.659Z,100511.72
2023-09-02T04:20:45.665Z,100511.45
2023-09-02T04:21:47.956Z,100512.03
2023-09-02T04:22:50.253Z,100512.58
2023-09-02T04:23:52.349Z,100514.29
2023-09-02T04:24:54.469Z,100514.02
2023-09-02T04:25:58.376Z,100512.89
2023-09-02T04:27:01.176Z,100517.12
2023-09-02T04:28:04.073Z,100511.36
2023-09-02T04:29:06.324Z,100517.47
2023-09-02T04:30:10.836Z,100519.14
2023-09-02T04:31:13.299Z,100522.55
2023-09-02T04:32:15.475Z,100523.25
2023-09-02T04:33:18.040Z,100517.89
2023-09-02T04:34:21.094Z,100527.33
2023-09-02T04:35:25.199Z,100522.82
2023-09-02T04:36:27.466Z,100522.70
2023-09-02T04:37:29.837Z,100514.77
2023-09-02T04:38:33.746Z,100518.89
2023-09-02T04:39:36.200Z,100524.10
2023-09-02T04:40:40.707Z,100523.12
2023-09-02T04:41:43.028Z,100528.34
2023-09-02T04:42:45.330Z,100530.90
2023-09-02T04:43:47.690Z,100525.25
2023-09-02T04:44:50.671Z,100527.66
2023-09-02T04:45:53.458Z,100529.34
2023-09-02T04:46:55.797Z,100523.97
2023-09-02T04:47:57.935Z,100530.77
2023-09-02T04:49:00.275Z,100534.42
2023-09-02T04:50:02.375Z,100528.63
2023-09-02T04:51:04.899Z,100528.34
2023-09-02T04:52:07.928Z,100532.58
2023-09-02T04:53:10.041Z,100534.01
2023-09-02T04:54:14.184Z,100534.58
2023-09-02T04:55:16.700Z,100536.83
2023-09-02T04:56:18.902Z,100537.53
2023-09-02T04:57:21.369Z,100530.91
2023-09-02T04:58:23.728Z,100531.31
2023-09-02T04:59:25.832Z,100534.41
2023-09-02T05:00:29.484Z,100538.52
2023-09-02T05:01:32.161Z,100538.94
2023-09-02T05:02:34.958Z,100539.19
2023-09-02T05:03:37.279Z,100538.05
2023-09-02T05:04:39.850Z,100542.16
2023-09-02T05:05:43.780Z,100546.11
2023-09-02T05:06:48.220Z,100546.39
2023-09-02T05:07:50.729Z,100539.59
2023-09-02T05:08:54.312Z,100544.39
2023-09-02T05:09:57.807Z,100542.96
2023-09-02T05:11:01.402Z,100541.53
2023-09-02T05:12:04.127Z,100542.66
2023-09-02T05:13:06.177Z,100541.22
2023-09-02T05:14:09.418Z,100542.31
2023-09-02T05:15:12.196Z,100541.00
2023-09-02T05:16:15.578Z,100538.75
2023-09-02T05:17:18.533Z,100537.44
2023-09-02T05:18:20.712Z,100545.90
2023-09-02T05:19:22.847Z,100537.41
2023-09-02T05:20:25.215Z,100538.78
2023-09-02T05:21:27.374Z,100536.65
2023-09-02T05:22:29.864Z,100539.05
2023-09-02T05:23:33.084Z,100543.27
2023-09-02T05:24:35.486Z,100547.34
2023-09-02T05:25:37.644Z,100541.83
2023-09-02T05:26:40.066Z,100537.00
2023-09-02T05:27:42.173Z,100545.77
2023-09-02T05:28:44.319Z,100540.94
2023-09-02T05:29:46.877Z,100546.73
2023-09-02T05:30:49.365Z,100540.03
2023-09-02T05:31:51.774Z,100550.38
2023-09-02T05:32:53.996Z,100548.88
2023-09-02T05:33:56.231Z,100543.92
2023-09-02T05:34:58.346Z,100545.16
2023-09-02T05:36:00.658Z,100544.52
2023-09-02T05:37:03.118Z,100547.76
2023-09-02T05:38:05.287Z,100549.16
2023-09-02T05:39:07.431Z,100549.67
2023-09-02T05:40:11.320Z,100541.46
2023-09-02T05:41:13.692Z,100540.30
2023-09-02T05:42:15.855Z,100548.08
2023-09-02T05:43:18.126Z,100548.45
2023-09-02T05:44:20.878Z,100549.99
2023-09-02T05:45:23.172Z,100549.52
2023-09-02T05:46:25.918Z,100550.06
2023-09-02T05:47:28.098Z,100547.74
2023-09-02T05:48:30.231Z,100552.52
2023-09-02T05:49:37.267Z,100540.41
2023-09-02T05:50:39.964Z,100550.05
2023-09-02T05:51:42.141Z,100549.74
2023-09-02T05:52:44.314Z,100555.67
2023-09-02T05:53:46.751Z,100552.84
2023-09-02T05:54:48.877Z,100555.05
2023-09-02T05:55:55.369Z,100555.91
2023-09-02T05:56:57.824Z,100554.06
2023-09-02T05:57:59.982Z,100554.88
2023-09-02T05:59:02.551Z,100557.58
2023-09-02T06:00:06.129Z,100550.03
2023-09-02T06:01:10.405Z,100551.73
2023-09-02T06:02:12.609Z,100545.32
2023-09-02T06:03:14.891Z,100544.88
2023-09-02T06:04:17.083Z,100551.63
2023-09-02T06:05:19.185Z,100539.67
2023-09-02T06:06:21.969Z,100544.61
2023-09-02T06:07:24.011Z,100543.44
2023-09-02T06:08:26.175Z,100537.88
2023-09-02T06:09:28.330Z,100541.25
2023-09-02T06:10:30.961Z,100546.02
2023-09-02T06:11:33.160Z,100539.45
2023-09-02T06:12:35.325Z,100540.84
2023-09-02T06:13:37.466Z,100541.38
2023-09-02T06:14:39.629Z,100537.16
2023-09-02T06:15:41.807Z,100537.69
2023-09-02T06:16:44.361Z,100541.77
2023-09-02T06:17:46.606Z,100538.90
2023-09-02T06:18:48.777Z,100550.22
2023-09-02T06:19:50.953Z,100541.80
2023-09-02T06:20:53.142Z,100546.70
2023-09-02T06:21:55.345Z,100548.94
2023-09-02T06:22:57.499Z,100547.80
2023-09-02T06:23:59.662Z,100554.55
2023-09-02T06:25:01.817Z,100551.67
2023-09-02T06:26:04.615Z,100553.23
2023-09-02T06:27:06.750Z,100553.91
2023-09-02T06:28:08.902Z,100551.88
2023-09-02T06:29:11.113Z,100551.73
2023-09-02T06:30:13.731Z,100551.55
2023-09-02T06:31:15.938Z,100547.86
2023-09-02T06:32:18.349Z,100556.78
2023-09-02T06:33:22.161Z,100551.23
2023-09-02T06:34:24.419Z,100549.88
2023-09-02T06:35:31.181Z,100549.55
2023-09-02T06:36:33.605Z,100553.78
2023-09-02T06:37:35.725Z,100545.36
2023-09-02T06:38:37.951Z,100550.61
2023-09-02T06:39:40.113Z,100548.05
2023-09-02T06:40:42.348Z,100550.75
2023-09-02T06:41:44.533Z,100555.30
2023-09-02T06:42:46.885Z,100548.91
2023-09-02T06:43:50.073Z,100550.28
2023-09-02T06:44:55.102Z,100556.35
2023-09-02T06:45:57.250Z,100547.41
2023-09-02T06:46:59.656Z,100545.23
2023-09-02T06:48:01.941Z,100553.00
2023-09-02T06:49:04.150Z,100555.52
2023-09-02T06:50:06.676Z,100556.19
2023-09-02T06:51:08.828Z,100563.97
2023-09-02T06:52:11.022Z,100555.02
2023-09-02T06:53:13.292Z,100559.59
2023-09-02T06:54:16.400Z,100558.56
2023-09-02T06:55:19.917Z,100559.27
2023-09-02T06:56:22.219Z,100555.39
2023-09-02T06:57:24.361Z,100560.44
2023-09-02T06:58:26.524Z,100557.25
2023-09-02T06:59:28.682Z,100557.92
2023-09-02T07:00:31.046Z,100565.87
2023-09-02T07:01:33.211Z,100563.17
2023-09-02T07:02:35.520Z,100563.00
2023-09-02T07:03:37.737Z,100558.97
2023-09-02T07:04:40.288Z,100565.04
2023-09-02T07:05:42.445Z,100563.86
2023-09-02T07:06:45.224Z,100564.53
2023-09-02T07:07:47.374Z,100573.19
2023-09-02T07:08:49.643Z,100564.90
2023-09-02T07:09:51.768Z,100572.67
2023-09-02T07:10:54.059Z,100571.34
2023-09-02T07:11:56.208Z,100563.58
2023-09-02T07:12:58.472Z,100569.31
2023-09-02T07:14:00.624Z,100563.23
2023-09-02T07:15:03.196Z,100566.42
2023-09-02T07:16:06.879Z,100565.94
2023-09-02T07:17:09.113Z,100573.38
2023-09-02T07:18:11.324Z,100567.60
2023-09-02T07:19:13.724Z,100571.00
2023-09-02T07:20:16.436Z,100570.67
2023-09-02T07:21:18.595Z,100566.08
2023-09-02T07:22:20.776Z,100569.63
2023-09-02T07:23:23.028Z,100568.45
2023-09-02T07:24:25.583Z,100573.36
2023-09-02T07:25:27.818Z,100563.72
2023-09-02T07:26:30.295Z,100568.95
2023-09-02T07:27:33.411Z,100566.24
2023-09-02T07:28:35.540Z,100569.61
2023-09-02T07:29:37.720Z,100571.12
2023-09-02T07:30:39.966Z,100566.23
2023-09-02T07:31:42.077Z,100564.70
2023-09-02T07:32:44.286Z,100572.66
2023-09-02T07:33:46.537Z,100565.55
2023-09-02T07:34:48.815Z,100563.53
2023-09-02T07:35:51.050Z,100571.31
2023-09-02T07:36:53.737Z,100568.08
2023-09-02T07:37:55.846Z,100559.47
2023-09-02T07:38:57.935Z,100566.20
2023-09-02T07:40:00.107Z,100569.60
2023-09-02T07:41:02.249Z,100573.13
2023-09-02T07:42:04.808Z,100570.95
2023-09-02T07:43:07.488Z,100568.59
2023-09-02T07:44:09.952Z,100569.44
2023-09-02T07:45:12.064Z,100570.95
2023-09-02T07:46:14.918Z,100575.36
2023-09-02T07:47:17.134Z,100580.42
2023-09-02T07:48:19.419Z,100570.92
2023-09-02T07:49:21.623Z,100572.44
2023-09-02T07:50:24.183Z,100571.91
2023-09-02T07:51:26.279Z,100575.30
2023-09-02T07:52:28.456Z,100572.59
2023-09-02T07:53:30.611Z,100577.67
2023-09-02T07:54:32.753Z,100571.22
2023-09-02T07:55:34.878Z,100566.30
2023-09-02T07:56:37.033Z,100559.88
2023-09-02T07:57:39.127Z,100565.77
2023-09-02T07:58:41.303Z,100566.08
2023-09-02T07:59:43.431Z,100563.88
2023-09-02T08:00:45.708Z,100569.95
2023-09-02T08:01:47.870Z,100567.75
2023-09-02T08:02:50.081Z,100566.20
2023-09-02T08:03:52.884Z,100559.89
2023-09-02T08:04:55.148Z,100563.76
2023-09-02T08:05:57.412Z,100568.34
2023-09-02T08:06:59.676Z,100563.89
2023-09-02T08:08:02.007Z,100566.90
2023-09-02T08:09:04.189Z,100564.03
2023-09-02T08:10:07.775Z,100569.26
2023-09-02T08:11:10.038Z,100563.48
2023-09-02T08:12:12.200Z,100569.56
2023-09-02T08:13:14.308Z,100568.55
2023-09-02T08:14:16.447Z,100569.75
2023-09-02T08:15:18.681Z,100567.39
2023-09-02T08:16:20.979Z,100562.69
2023-09-02T08:17:23.295Z,100565.94
2023-09-02T08:18:25.861Z,100570.86
2023-09-02T08:19:32.517Z,100572.56
2023-09-02T08:20:35.001Z,100573.77
2023-09-02T08:21:37.289Z,100574.93
2023-09-02T08:22:39.415Z,100574.27
2023-09-02T08:23:41.570Z,100577.83
2023-09-02T08:24:43.688Z,100573.27
2023-09-02T08:25:45.876Z,100580.34
2023-09-02T08:26:48.236Z,100578.48
2023-09-02T08:27:50.359Z,100569.52
2023-09-02T08:28:52.456Z,100572.56
2023-09-02T08:29:54.610Z,100575.38
2023-09-02T08:30:56.879Z,100576.53
2023-09-02T08:31:59.244Z,100578.34
2023-09-02T08:33:01.463Z,100574.62
2023-09-02T08:34:03.648Z,100573.91
2023-09-02T08:35:06.991Z,100571.36
2023-09-02T08:37:24.559Z,100565.86
2023-09-02T08:38:26.941Z,100577.28
2023-09-02T08:39:29.076Z,100576.43
2023-09-02T08:40:34.412Z,100568.14
2023-09-02T08:41:36.973Z,100572.00
2023-09-02T08:42:40.470Z,100566.88
2023-09-02T08:43:42.725Z,100565.30
2023-09-02T08:44:46.933Z,100577.09
2023-09-02T08:45:51.033Z,100574.68
2023-09-02T08:46:54.564Z,100566.71
2023-09-02T08:48:02.469Z,100563.08
2023-09-02T08:49:05.002Z,100561.70
2023-09-02T08:50:09.731Z,100571.34
2023-09-02T08:51:12.168Z,100565.72
2023-09-02T08:52:14.536Z,100567.78
2023-09-02T08:53:16.942Z,100572.06
2023-09-02T08:54:19.370Z,100580.75
2023-09-02T08:55:22.555Z,100573.02
2023-09-02T08:56:26.639Z,100572.03
2023-09-02T08:57:29.021Z,100574.94
2023-09-02T08:58:31.990Z,100577.00
2023-09-02T08:59:34.525Z,100576.80
2023-09-02T09:00:37.406Z,100574.39
2023-09-02T09:01:42.033Z,100577.03
2023-09-02T09:02:44.325Z,100579.55
2023-09-02T09:03:54.630Z,100574.05
2023-09-02T09:04:58.823Z,100576.33
2023-09-02T09:06:02.138Z,100571.47
2023-09-02T09:07:05.853Z,100569.52
2023-09-02T09:08:08.811Z,100572.80
2023-09-02T09:09:11.590Z,100562.53
2023-09-02T09:10:15.775Z,100566.01
2023-09-02T09:11:18.148Z,100568.19
2023-09-02T09:12:22.256Z,100565.91
2023-09-02T09:13:26.248Z,100563.30
2023-09-02T09:14:33.219Z,100571.72
2023-09-02T09:15:36.302Z,100568.47
2023-09-02T09:16:40.238Z,100566.19
2023-09-02T09:17:43.509Z,100568.53
2023-09-02T09:18:46.263Z,100566.94
2023-09-02T09:19:48.617Z,100562.62
2023-09-02T09:20:51.286Z,100568.15
2023-09-02T09:21:53.440Z,100563.56
2023-09-02T09:22:56.265Z,100570.92
2023-09-02T09:23:58.478Z,100572.04
2023-09-02T09:25:00.598Z,100570.44
2023-09-02T09:26:04.527Z,100570.44
2023-09-02T09:27:07.716Z,100571.19
2023-09-02T09:28:12.837Z,100567.77
2023-09-02T09:29:16.951Z,100569.65
2023-09-02T09:30:29.808Z,100574.27
2023-09-02T09:31:32.002Z,100570.90
2023-09-02T09:32:34.158Z,100572.72
2023-09-02T09:33:36.324Z,100571.95
2023-09-02T09:34:40.952Z,100573.94
2023-09-02T09:35:43.204Z,100573.63
2023-09-02T09:36:48.982Z,100572.48
2023-09-02T09:37:57.549Z,100575.28
2023-09-02T09:39:02.674Z,100574.90
2023-09-02T09:40:06.583Z,100569.91
2023-09-02T09:41:09.806Z,100569.09
2023-09-02T09:43:22.505Z,100567.11
2023-09-02T09:44:24.623Z,100573.30
2023-09-02T09:45:27.711Z,100566.02
2023-09-02T09:46:31.020Z,100563.91
2023-09-02T09:47:33.351Z,100567.89
2023-09-02T09:48:39.254Z,100565.27
2023-09-02T09:49:41.416Z,100567.34
2023-09-02T09:50:43.716Z,100563.16
2023-09-02T09:51:45.873Z,100560.05
2023-09-02T09:53:02.160Z,100565.48
2023-09-02T09:54:04.421Z,100560.45
2023-09-02T09:55:09.362Z,100564.55
2023-09-02T09:56:12.423Z,100557.98
2023-09-02T09:57:37.016Z,100573.05
2023-09-02T09:58:39.571Z,100564.55
2023-09-02T09:59:52.265Z,100570.17
2023-09-02T10:00:55.149Z,100568.47
2023-09-02T10:01:57.481Z,100567.82
2023-09-02T10:03:00.363Z,100561.47
2023-09-02T10:04:08.986Z,100571.88
2023-09-02T10:05:11.296Z,100559.06
2023-09-02T10:06:13.722Z,100561.12
2023-09-02T10:07:17.008Z,100557.70
2023-09-02T10:08:19.430Z,100561.06
2023-09-02T10:09:21.721Z,100560.89
2023-09-02T10:10:31.541Z,100559.67
2023-09-02T10:11:33.690Z,100561.33
2023-09-02T10:12:39.251Z,100565.91
2023-09-02T10:13:40.190Z,100561.91
2023-09-02T10:14:44.410Z,100561.91
2023-09-02T10:15:48.004Z,100568.36
2023-09-02T10:16:50.654Z,100571.27
2023-09-02T10:17:55.078Z,100571.81
2023-09-02T10:18:59.166Z,100567.12
2023-09-02T10:20:01.404Z,100574.50
2023-09-02T10:21:03.699Z,100580.18
2023-09-02T10:22:06.565Z,100572.60
2023-09-02T10:23:10.262Z,100575.16
2023-09-02T10:24:13.951Z,100576.25
2023-09-02T10:25:20.686Z,100571.95
2023-09-02T10:26:33.120Z,100563.72
2023-09-02T10:27:38.751Z,100565.84
2023-09-02T10:28:41.016Z,100563.50
2023-09-02T10:29:44.295Z,100568.47
2023-09-02T10:30:49.554Z,100564.80
2023-09-02T10:31:54.303Z,100563.84
2023-09-02T10:33:00.320Z,100561.02
2023-09-02T10:34:14.015Z,100558.19
2023-09-02T10:36:28.779Z,100551.55
2023-09-02T10:38:48.549Z,100551.48
2023-09-02T10:39:57.469Z,100551.63
2023-09-02T10:42:16.219Z,100550.52
2023-09-02T10:43:18.977Z,100550.69
2023-09-02T10:44:22.793Z,100548.74
2023-09-02T10:45:26.583Z,100555.34
2023-09-02T10:46:29.122Z,100546.81
2023-09-02T10:47:31.350Z,100546.26
2023-09-02T10:48:35.366Z,100546.77
2023-09-02T10:49:38.057Z,100545.13
2023-09-02T10:50:41.061Z,100543.88
2023-09-02T10:51:43.483Z,100548.53
2023-09-02T10:52:49.713Z,100548.58
2023-09-02T10:53:53.492Z,100546.70
2023-09-02T10:55:04.041Z,100546.65
2023-09-02T10:56:07.616Z,100553.47
2023-09-02T10:57:13.375Z,100548.58
2023-09-02T10:58:15.628Z,100547.88
2023-09-02T10:59:30.123Z,100554.04
2023-09-02T11:00:32.534Z,100544.08
2023-09-02T11:01:46.989Z,100544.41
2023-09-02T11:02:51.360Z,100542.85
2023-09-02T11:03:53.958Z,100550.30
2023-09-02T11:04:57.131Z,100554.21
2023-09-02T11:06:06.176Z,100549.55
2023-09-02T11:07:24.398Z,100554.72
2023-09-02T11:08:44.989Z,100552.98
2023-09-02T11:11:04.450Z,100551.49
2023-09-02T11:12:10.050Z,100553.41
2023-09-02T11:13:12.312Z,100556.12
2023-09-02T11:14:19.252Z,100554.42
2023-09-02T11:15:21.481Z,100554.42
2023-09-02T11:16:25.529Z,100550.30
2023-09-02T11:17:29.282Z,100542.61
2023-09-02T11:18:31.836Z,100551.58
2023-09-02T11:21:04.828Z,100556.26
2023-09-02T11:22:06.987Z,100546.74
2023-09-02T11:23:11.197Z,100552.64
2023-09-02T11:24:17.765Z,100548.69
2023-09-02T11:25:31.886Z,100546.23
2023-09-02T11:26:38.417Z,100541.25
2023-09-02T11:27:46.859Z,100538.39
2023-09-02T11:28:49.742Z,100539.95
2023-09-02T11:29:55.777Z,100534.55
2023-09-02T11:31:12.620Z,100531.08
2023-09-02T11:32:14.705Z,100539.09
2023-09-02T11:33:21.044Z,100541.48
2023-09-02T11:34:24.991Z,100543.22
2023-09-02T11:35:46.967Z,100544.91
2023-09-02T11:36:49.275Z,100540.88
2023-09-02T11:37:51.447Z,100537.95
2023-09-02T11:38:55.535Z,100531.30
2023-09-02T11:39:57.798Z,100542.21
2023-09-02T11:41:00.466Z,100530.92
2023-09-02T11:42:10.859Z,100534.95
2023-09-02T11:43:18.460Z,100533.89
2023-09-02T11:44:20.861Z,100530.77
2023-09-02T11:45:23.910Z,100530.38
2023-09-02T11:46:26.536Z,100519.72
2023-09-02T11:47:28.850Z,100531.91
2023-09-02T11:48:31.450Z,100532.72
2023-09-02T11:49:34.006Z,100535.42
2023-09-02T11:50:38.564Z,100532.64
2023-09-02T11:51:40.882Z,100527.81
2023-09-02T11:52:43.470Z,100526.12
2023-09-02T11:53:47.392Z,100533.04
2023-09-02T11:54:49.613Z,100525.53
2023-09-02T11:55:51.773Z,100534.97
2023-09-02T11:57:00.276Z,100522.84
2023-09-02T11:58:09.421Z,100533.55
2023-09-02T11:59:27.010Z,100523.89
2023-09-02T12:00:28.610Z,100535.42
2023-09-02T12:01:31.007Z,100523.23
2023-09-02T12:03:43.774Z,100523.73
2023-09-02T12:04:46.010Z,100527.36
2023-09-02T12:05:50.526Z,100524.40
2023-09-02T12:06:53.177Z,100520.59
2023-09-02T12:07:55.650Z,100529.76
2023-09-02T12:08:57.798Z,100530.48
2023-09-02T12:10:08.059Z,100524.05
2023-09-02T12:11:10.315Z,100526.11
2023-09-02T12:12:12.868Z,100529.21
2023-09-02T12:13:16.244Z,100524.62
2023-09-02T12:14:18.923Z,100521.90
2023-09-02T12:15:21.181Z,100528.82
2023-09-02T12:16:23.508Z,100521.48